createdAt,value
2018-12-20T00:02:26.569Z,24.43
2018-12-20T00:04:57.466Z,26.77
2018-12-20T00:07:38.111Z,28.70
2018-12-20T00:10:13.591Z,26.43
2018-12-20T00:12:43.613Z,30.97
2018-12-20T00:15:15.683Z,26.27
2018-12-20T00:21:17.344Z,25.80
2018-12-20T00:23:47.424Z,29.77
2018-12-20T00:26:17.550Z,26.63
2018-12-20T00:28:47.697Z,25.70
2018-12-20T00:31:19.795Z,27.47
2018-12-20T00:33:51.627Z,25.50
2018-12-20T00:36:21.755Z,26.07
2018-12-20T00:38:51.926Z,27.07
2018-12-20T00:41:22.070Z,28.47
2018-12-20T00:43:57.348Z,24.63
2018-12-20T00:46:39.936Z,28.13
2018-12-20T00:49:11.722Z,28.17
2018-12-20T00:51:42.000Z,26.40
2018-12-20T00:54:16.578Z,27.87
2018-12-20T00:56:46.554Z,26.63
2018-12-20T00:59:16.502Z,26.90
2018-12-20T01:01:46.554Z,30.53
2018-12-20T01:04:16.834Z,24.67
2018-12-20T01:06:46.854Z,30.27
2018-12-20T01:09:20.846Z,30.47
2018-12-20T01:11:51.084Z,33.87
2018-12-20T01:14:21.288Z,26.90
2018-12-20T01:16:51.523Z,27.93
2018-12-20T01:19:21.607Z,27.93
2018-12-20T01:21:51.778Z,31.80
2018-12-20T01:24:26.808Z,32.67
2018-12-20T01:26:56.885Z,31.67
2018-12-20T01:29:26.880Z,32.17
2018-12-20T01:31:56.865Z,29.37
2018-12-20T01:34:27.907Z,32.23
2018-12-20T01:36:59.956Z,27.23
2018-12-20T01:39:30.143Z,31.67
2018-12-20T01:42:00.295Z,29.53
2018-12-20T01:44:30.318Z,28.40
2018-12-20T01:47:05.994Z,36.23
2018-12-20T01:49:48.071Z,30.93
2018-12-20T01:52:24.598Z,34.00
2018-12-20T01:55:00.960Z,29.40
2018-12-20T01:57:33.749Z,28.20
2018-12-20T02:00:06.239Z,30.93
2018-12-20T02:02:36.059Z,30.43
2018-12-20T02:05:08.030Z,29.20
2018-12-20T02:07:38.146Z,30.40
2018-12-20T02:10:08.071Z,32.70
2018-12-20T02:12:38.058Z,32.80
2018-12-20T02:15:08.360Z,29.67
2018-12-20T02:17:38.549Z,29.93
2018-12-20T02:20:09.030Z,31.80
2018-12-20T02:22:41.181Z,31.77
2018-12-20T02:25:16.470Z,34.13
2018-12-20T02:27:46.573Z,36.17
2018-12-20T02:30:16.982Z,34.10
2018-12-20T02:32:47.159Z,34.47
2018-12-20T02:35:17.152Z,37.23
2018-12-20T02:37:47.323Z,36.30
2018-12-20T02:40:17.758Z,33.73
2018-12-20T02:42:51.341Z,34.17
2018-12-20T02:45:21.379Z,33.53
2018-12-20T02:47:51.566Z,38.20
2018-12-20T02:50:22.905Z,35.43
2018-12-20T02:52:53.156Z,34.27
2018-12-20T02:55:26.751Z,33.17
2018-12-20T02:57:56.860Z,34.37
2018-12-20T03:00:26.849Z,32.63
2018-12-20T03:02:56.976Z,32.53
2018-12-20T03:05:40.613Z,31.07
2018-12-20T03:08:10.759Z,33.17
2018-12-20T03:10:40.842Z,35.87
2018-12-20T03:13:11.043Z,33.47
2018-12-20T03:15:41.278Z,35.57
2018-12-20T03:18:11.239Z,34.47
2018-12-20T03:20:41.267Z,35.90
2018-12-20T03:23:11.520Z,32.73
2018-12-20T03:25:42.729Z,34.03
2018-12-20T03:28:12.748Z,37.80
2018-12-20T03:30:42.854Z,33.67
2018-12-20T03:33:12.789Z,34.80
2018-12-20T03:35:43.969Z,36.23
2018-12-20T03:38:14.187Z,34.30
2018-12-20T03:40:44.301Z,32.47
2018-12-20T03:43:14.167Z,37.80
2018-12-20T03:45:44.188Z,34.50
2018-12-20T03:48:14.463Z,40.47
2018-12-20T03:50:44.615Z,37.03
2018-12-20T03:53:14.762Z,40.90
2018-12-20T03:55:49.518Z,39.07
2018-12-20T03:58:19.509Z,42.37
2018-12-20T04:00:49.497Z,40.47
2018-12-20T04:06:24.273Z,35.63
2018-12-20T04:09:06.904Z,33.37
2018-12-20T04:11:37.444Z,35.60
2018-12-20T04:14:08.461Z,34.93
2018-12-20T04:16:38.555Z,33.70
2018-12-20T04:19:08.685Z,35.37
2018-12-20T04:21:38.859Z,36.67
2018-12-20T04:24:08.926Z,36.10
2018-12-20T04:26:40.997Z,37.73
2018-12-20T04:29:11.426Z,38.27
2018-12-20T04:31:41.393Z,37.97
2018-12-20T04:34:11.575Z,36.63
2018-12-20T04:36:41.783Z,38.37
2018-12-20T04:39:13.607Z,38.53
2018-12-20T04:41:43.616Z,42.17
2018-12-20T04:44:13.622Z,39.17
2018-12-20T04:46:43.937Z,39.77
2018-12-20T04:49:14.239Z,38.17
2018-12-20T04:51:44.690Z,34.63
2018-12-20T04:54:14.906Z,38.47
2018-12-20T04:56:44.805Z,40.43
2018-12-20T04:59:15.144Z,40.13
2018-12-20T05:01:45.309Z,37.70
2018-12-20T05:04:15.309Z,40.47
2018-12-20T05:06:45.480Z,40.77
2018-12-20T05:09:15.581Z,45.43
2018-12-20T05:11:46.070Z,41.53
2018-12-20T05:14:16.190Z,37.97
2018-12-20T05:16:50.278Z,41.80
2018-12-20T05:19:20.279Z,38.97
2018-12-20T05:21:50.174Z,40.47
2018-12-20T05:24:20.603Z,46.23
2018-12-20T05:26:50.734Z,42.37
2018-12-20T05:29:23.641Z,45.70
2018-12-20T05:31:53.697Z,44.87
2018-12-20T05:34:23.913Z,42.17
2018-12-20T05:36:54.143Z,44.43
2018-12-20T05:39:24.278Z,47.63
2018-12-20T05:41:54.342Z,37.87
2018-12-20T05:44:24.398Z,37.90
2018-12-20T05:46:54.280Z,42.70
2018-12-20T05:49:24.338Z,36.67
2018-12-20T05:51:54.348Z,36.23
2018-12-20T05:54:24.834Z,38.27
2018-12-20T05:56:55.958Z,40.30
2018-12-20T05:59:25.996Z,40.60
2018-12-20T06:01:56.031Z,40.90
2018-12-20T06:04:26.218Z,39.33
2018-12-20T06:06:56.710Z,42.93
2018-12-20T06:09:26.889Z,44.27
2018-12-20T06:11:57.183Z,39.00
2018-12-20T06:14:27.441Z,45.30
2018-12-20T06:16:57.376Z,45.23
2018-12-20T06:19:27.777Z,44.77
2018-12-20T06:21:57.888Z,41.93
2018-12-20T06:24:27.941Z,41.43
2018-12-20T06:26:58.359Z,41.30
2018-12-20T06:29:28.290Z,44.20
2018-12-20T06:31:58.276Z,45.60
2018-12-20T06:34:28.259Z,42.20
2018-12-20T06:36:58.250Z,40.30
2018-12-20T06:39:29.371Z,38.07
2018-12-20T06:41:59.335Z,39.90
2018-12-20T06:44:29.345Z,42.97
2018-12-20T06:46:59.304Z,39.57
2018-12-20T06:49:29.310Z,41.03
2018-12-20T06:51:59.220Z,40.23
2018-12-20T06:54:29.160Z,40.73
2018-12-20T06:56:59.140Z,41.23
2018-12-20T06:59:29.100Z,41.57
2018-12-20T07:02:03.506Z,42.73
2018-12-20T07:04:33.640Z,40.50
2018-12-20T07:07:04.048Z,45.50
2018-12-20T07:09:33.978Z,43.90
2018-12-20T07:12:04.977Z,44.63
2018-12-20T07:14:40.857Z,42.07
2018-12-20T07:17:11.037Z,42.70
2018-12-20T07:19:45.049Z,41.03
2018-12-20T07:22:15.940Z,43.37
2018-12-20T07:24:45.920Z,39.60
2018-12-20T07:27:15.994Z,44.60
2018-12-20T07:29:45.972Z,44.43
2018-12-20T07:32:16.113Z,43.93
2018-12-20T07:34:47.942Z,45.03
2018-12-20T07:37:18.200Z,40.20
2018-12-20T07:39:48.202Z,41.50
2018-12-20T07:42:18.326Z,46.20
2018-12-20T07:44:48.292Z,43.60
2018-12-20T07:47:20.334Z,44.57
2018-12-20T07:49:53.043Z,45.67
2018-12-20T07:52:27.605Z,43.90
2018-12-20T07:54:57.827Z,42.43
2018-12-20T07:57:28.395Z,40.97
2018-12-20T07:59:59.811Z,41.57
2018-12-20T08:02:29.833Z,47.53
2018-12-20T08:05:00.510Z,42.50
2018-12-20T08:07:31.767Z,44.43
2018-12-20T08:10:07.149Z,46.60
2018-12-20T08:12:37.886Z,43.50
2018-12-20T08:15:07.998Z,43.97
2018-12-20T08:17:38.315Z,47.00
2018-12-20T08:20:10.207Z,47.87
2018-12-20T08:22:42.015Z,45.57
2018-12-20T08:25:12.068Z,45.33
2018-12-20T08:27:42.463Z,49.93
2018-12-20T08:30:12.421Z,43.30
2018-12-20T08:32:42.450Z,50.23
2018-12-20T08:35:14.199Z,47.47
2018-12-20T08:37:44.451Z,46.17
2018-12-20T08:40:15.577Z,45.23
2018-12-20T08:42:45.465Z,44.13
2018-12-20T08:45:15.554Z,45.33
2018-12-20T08:47:46.183Z,44.73
2018-12-20T08:50:16.386Z,43.20
2018-12-20T08:52:46.503Z,42.53
2018-12-20T08:55:16.636Z,43.20
2018-12-20T08:57:46.832Z,42.83
2018-12-20T09:00:17.068Z,41.90
2018-12-20T09:02:47.165Z,44.23
2018-12-20T09:05:17.785Z,47.30
2018-12-20T09:07:47.937Z,46.17
2018-12-20T09:10:18.290Z,44.93
2018-12-20T09:12:48.475Z,42.20
2018-12-20T09:15:18.712Z,43.33
2018-12-20T09:17:50.285Z,41.63
2018-12-20T09:20:20.632Z,42.33
2018-12-20T09:22:50.698Z,41.63
2018-12-20T09:25:21.201Z,40.13
2018-12-20T09:27:53.975Z,45.10
2018-12-20T09:30:30.454Z,46.27
2018-12-20T09:32:56.922Z,45.53
2018-12-20T09:35:27.233Z,44.43
2018-12-20T09:37:57.786Z,39.00
2018-12-20T09:40:29.322Z,43.17
2018-12-20T09:42:59.730Z,41.70
2018-12-20T09:45:29.728Z,44.63
2018-12-20T09:48:05.931Z,46.33
2018-12-20T09:50:36.154Z,44.43
2018-12-20T09:53:06.189Z,42.30
2018-12-20T09:55:36.186Z,42.83
2018-12-20T09:58:06.366Z,45.70
2018-12-20T10:00:38.118Z,40.37
2018-12-20T10:03:09.936Z,44.90
2018-12-20T10:05:41.779Z,51.47
2018-12-20T10:08:15.373Z,45.53
2018-12-20T10:10:52.555Z,47.03
2018-12-20T10:13:22.678Z,44.43
2018-12-20T10:15:53.193Z,46.40
2018-12-20T10:18:23.385Z,46.07
2018-12-20T10:20:53.655Z,46.97
2018-12-20T10:23:23.716Z,48.37
2018-12-20T10:25:53.753Z,46.37
2018-12-20T10:28:24.051Z,49.13
2018-12-20T10:30:54.261Z,49.37
2018-12-20T10:33:24.642Z,48.77
2018-12-20T10:35:56.553Z,46.80
2018-12-20T10:38:26.753Z,45.30
2018-12-20T10:40:56.925Z,50.30
2018-12-20T10:43:26.995Z,46.30
2018-12-20T10:45:57.730Z,49.07
2018-12-20T10:48:27.877Z,49.30
2018-12-20T10:50:57.939Z,49.47
2018-12-20T10:53:27.990Z,47.77
2018-12-20T10:55:58.260Z,46.00
2018-12-20T10:58:28.218Z,47.13
2018-12-20T11:01:05.290Z,48.83
2018-12-20T11:03:40.659Z,47.37
2018-12-20T11:06:16.107Z,46.00
2018-12-20T11:08:51.439Z,46.00
2018-12-20T11:11:23.313Z,41.00
2018-12-20T11:13:53.156Z,53.60
2018-12-20T11:16:23.321Z,47.10
2018-12-20T11:18:53.339Z,48.27
2018-12-20T11:21:23.366Z,47.80
2018-12-20T11:23:55.242Z,46.83
2018-12-20T11:26:25.362Z,45.93
2018-12-20T11:28:55.547Z,46.77
2018-12-20T11:31:25.646Z,51.10
2018-12-20T11:33:55.820Z,45.73
2018-12-20T11:36:25.818Z,44.33
2018-12-20T11:38:55.937Z,48.20
2018-12-20T11:41:25.965Z,44.40
2018-12-20T11:43:56.026Z,46.60
2018-12-20T11:46:26.129Z,47.50
2018-12-20T11:48:56.294Z,39.73
2018-12-20T11:51:26.219Z,45.50
2018-12-20T11:53:56.412Z,45.03
2018-12-20T11:56:26.429Z,42.43
2018-12-20T11:58:56.711Z,41.63
2018-12-20T12:01:26.670Z,43.37
2018-12-20T12:03:57.476Z,44.43
2018-12-20T12:06:38.566Z,44.47
2018-12-20T12:09:10.301Z,45.03
2018-12-20T12:11:40.267Z,42.10
2018-12-20T12:14:10.318Z,43.17
2018-12-20T12:16:43.136Z,42.80
2018-12-20T12:19:13.104Z,37.00
2018-12-20T12:21:43.051Z,39.73
2018-12-20T12:24:17.966Z,41.10
2018-12-20T12:26:48.214Z,43.20
2018-12-20T12:29:18.090Z,38.90
2018-12-20T12:31:48.147Z,41.10
2018-12-20T12:34:24.365Z,37.77
2018-12-20T12:36:55.892Z,37.67
2018-12-20T12:39:27.084Z,36.97
2018-12-20T12:41:59.348Z,40.00
2018-12-20T12:44:33.648Z,40.13
2018-12-20T12:47:07.593Z,41.37
2018-12-20T12:49:38.660Z,41.07
2018-12-20T12:52:09.077Z,48.17
2018-12-20T12:54:41.090Z,38.73
2018-12-20T12:57:11.213Z,43.03
2018-12-20T12:59:41.281Z,34.37
2018-12-20T13:02:11.270Z,44.00
2018-12-20T13:04:48.586Z,35.93
2018-12-20T13:07:20.546Z,38.60
2018-12-20T13:09:50.567Z,33.60
2018-12-20T13:12:20.573Z,34.73
2018-12-20T13:14:50.746Z,36.10
2018-12-20T13:17:21.050Z,31.27
2018-12-20T13:19:51.057Z,33.47
2018-12-20T13:22:21.122Z,27.97
2018-12-20T13:24:51.076Z,32.73
2018-12-20T13:27:21.014Z,35.87
2018-12-20T13:29:51.062Z,34.20
2018-12-20T13:32:21.165Z,37.17
2018-12-20T13:34:51.208Z,33.07
2018-12-20T13:37:32.387Z,31.37
2018-12-20T13:40:08.885Z,30.40
2018-12-20T13:42:40.027Z,30.87
2018-12-20T13:45:09.937Z,29.37
2018-12-20T13:47:39.910Z,30.03
2018-12-20T13:50:10.279Z,30.73
2018-12-20T13:52:40.375Z,29.33
2018-12-20T13:55:10.529Z,28.77
2018-12-20T13:57:40.613Z,31.07
2018-12-20T14:00:15.371Z,25.33
2018-12-20T14:02:45.414Z,27.90
2018-12-20T14:05:15.576Z,29.97
2018-12-20T14:07:46.728Z,24.07
2018-12-20T14:10:17.139Z,27.57
2018-12-20T14:12:56.395Z,31.83
2018-12-20T14:15:28.700Z,20.77
2018-12-20T14:17:58.826Z,22.13
2018-12-20T14:20:30.685Z,25.37
2018-12-20T14:23:02.220Z,20.37
2018-12-20T14:25:32.149Z,22.03
2018-12-20T14:28:02.105Z,26.13
2018-12-20T14:30:32.097Z,22.20
2018-12-20T14:33:02.012Z,25.30
2018-12-20T14:35:31.957Z,22.67
2018-12-20T14:38:02.018Z,22.23
2018-12-20T14:40:32.239Z,20.63
2018-12-20T14:43:02.238Z,22.27
2018-12-20T14:45:32.300Z,25.03
2018-12-20T14:48:02.354Z,24.13
2018-12-20T14:50:32.423Z,19.93
2018-12-20T14:53:02.412Z,20.27
2018-12-20T14:55:32.539Z,21.47
2018-12-20T14:58:02.520Z,18.13
2018-12-20T15:00:32.621Z,21.40
2018-12-20T15:03:02.582Z,35.90
2018-12-20T15:05:32.671Z,22.80
2018-12-20T15:08:03.646Z,21.30
2018-12-20T15:10:33.779Z,19.17
2018-12-20T15:13:03.917Z,22.37
2018-12-20T15:15:41.404Z,20.27
2018-12-20T15:18:13.282Z,21.30
2018-12-20T15:20:43.344Z,18.70
2018-12-20T15:23:13.320Z,18.30
2018-12-20T15:25:43.536Z,18.70
2018-12-20T15:28:13.564Z,20.63
2018-12-20T15:30:43.571Z,20.27
2018-12-20T15:33:13.695Z,20.00
2018-12-20T15:35:43.678Z,18.93
2018-12-20T15:38:13.847Z,18.23
2018-12-20T15:40:44.114Z,21.47
2018-12-20T15:43:14.504Z,23.20
2018-12-20T15:45:44.594Z,23.20
2018-12-20T15:48:16.981Z,19.70
2018-12-20T15:50:47.062Z,17.07
2018-12-20T15:53:17.094Z,18.57
2018-12-20T15:55:47.087Z,19.50
2018-12-20T15:58:17.080Z,19.37
2018-12-20T16:00:47.065Z,19.90
2018-12-20T16:03:17.418Z,20.53
2018-12-20T16:05:47.435Z,18.50
2018-12-20T16:08:17.509Z,18.27
2018-12-20T16:10:47.539Z,17.50
2018-12-20T16:13:17.640Z,18.50
2018-12-20T16:15:47.804Z,20.00
2018-12-20T16:18:17.901Z,16.57
2018-12-20T16:20:50.779Z,19.27
2018-12-20T16:23:20.884Z,17.87
2018-12-20T16:25:51.057Z,19.50
2018-12-20T16:28:20.932Z,15.30
2018-12-20T16:30:51.334Z,18.10
2018-12-20T16:33:21.376Z,18.20
2018-12-20T16:35:51.533Z,16.77
2018-12-20T16:38:21.697Z,16.60
2018-12-20T16:40:51.565Z,15.80
2018-12-20T16:43:21.535Z,15.47
2018-12-20T16:45:51.789Z,18.40
2018-12-20T16:48:24.988Z,22.93
2018-12-20T16:50:55.011Z,20.20
2018-12-20T16:53:29.442Z,18.03
2018-12-20T16:55:59.438Z,20.60
2018-12-20T16:58:29.260Z,19.90
2018-12-20T17:01:00.847Z,22.60
2018-12-20T17:03:30.801Z,19.77
2018-12-20T17:06:00.969Z,19.77
2018-12-20T17:08:30.977Z,18.53
2018-12-20T17:11:01.007Z,18.03
2018-12-20T17:13:31.048Z,18.17
2018-12-20T17:16:01.066Z,20.57
2018-12-20T17:18:31.137Z,22.67
2018-12-20T17:21:01.225Z,19.20
2018-12-20T17:23:35.585Z,17.37
2018-12-20T17:26:03.430Z,19.13
2018-12-20T17:28:33.514Z,20.07
2018-12-20T17:31:03.676Z,17.37
2018-12-20T17:33:51.997Z,21.67
2018-12-20T17:36:21.983Z,19.50
2018-12-20T17:38:52.091Z,20.33
2018-12-20T17:41:22.152Z,17.67
2018-12-20T17:43:52.259Z,19.43
2018-12-20T17:46:22.435Z,20.70
2018-12-20T17:48:57.136Z,14.50
2018-12-20T17:51:27.435Z,15.40
2018-12-20T17:53:57.428Z,20.03
2018-12-20T17:56:27.386Z,18.27
2018-12-20T17:59:01.250Z,15.30
2018-12-20T18:01:31.148Z,19.00
2018-12-20T18:04:01.207Z,16.70
2018-12-20T18:06:31.200Z,16.80
2018-12-20T18:09:01.268Z,14.73
2018-12-20T18:11:31.398Z,18.13
2018-12-20T18:14:02.540Z,14.43
2018-12-20T18:16:32.578Z,14.93
2018-12-20T18:19:02.675Z,14.23
2018-12-20T18:21:33.036Z,14.47
2018-12-20T18:24:03.113Z,12.60
2018-12-20T18:26:33.175Z,12.87
2018-12-20T18:29:03.296Z,10.43
2018-12-20T18:31:33.449Z,14.23
2018-12-20T18:34:07.876Z,12.97
2018-12-20T18:36:38.271Z,12.13
2018-12-20T18:39:10.337Z,12.40
2018-12-20T18:41:44.205Z,9.47
2018-12-20T18:44:14.205Z,13.20
2018-12-20T18:46:45.032Z,10.67
2018-12-20T18:52:05.010Z,9.83
2018-12-20T18:54:35.439Z,11.60
2018-12-20T18:57:05.598Z,11.13
2018-12-20T18:59:35.928Z,11.57
2018-12-20T19:02:06.561Z,18.87
2018-12-20T19:04:36.808Z,13.13
2018-12-20T19:07:06.974Z,9.83
2018-12-20T19:09:37.045Z,14.20
2018-12-20T19:12:07.029Z,15.40
2018-12-20T19:14:37.339Z,13.17
2018-12-20T19:17:08.589Z,18.03
2018-12-20T19:19:38.908Z,14.37
2018-12-20T19:22:10.702Z,15.37
2018-12-20T19:24:41.062Z,15.83
2018-12-20T19:27:11.182Z,15.67
2018-12-20T19:29:41.435Z,19.83
2018-12-20T19:32:11.440Z,15.83
2018-12-20T19:34:41.358Z,16.73
2018-12-20T19:37:11.387Z,16.20
2018-12-20T19:39:41.436Z,14.00
2018-12-20T19:42:16.388Z,13.37
2018-12-20T19:44:46.378Z,17.97
2018-12-20T19:47:16.360Z,14.93
2018-12-20T19:49:47.437Z,17.90
2018-12-20T19:52:17.456Z,18.40
2018-12-20T19:54:48.052Z,19.57
2018-12-20T19:57:18.615Z,18.03
2018-12-20T19:59:48.689Z,17.00
2018-12-20T20:02:18.846Z,18.07
2018-12-20T20:04:50.596Z,16.67
2018-12-20T20:07:20.617Z,16.33
2018-12-20T20:09:50.971Z,18.10
2018-12-20T20:12:20.956Z,21.00
2018-12-20T20:14:50.925Z,17.20
2018-12-20T20:17:21.250Z,19.93
2018-12-20T20:19:59.563Z,16.73
2018-12-20T20:22:23.335Z,16.43
2018-12-20T20:24:53.414Z,18.63
2018-12-20T20:27:23.368Z,19.37
2018-12-20T20:29:53.565Z,16.53
2018-12-20T20:32:23.652Z,23.33
2018-12-20T20:34:53.789Z,20.77
2018-12-20T20:37:23.796Z,21.70
2018-12-20T20:39:53.774Z,19.37
2018-12-20T20:42:23.798Z,19.87
2018-12-20T20:44:53.859Z,21.97
2018-12-20T20:47:23.938Z,20.50
2018-12-20T20:49:53.981Z,27.80
2018-12-20T20:52:24.043Z,28.43
2018-12-20T20:54:54.056Z,26.60
2018-12-20T20:57:24.296Z,24.00
2018-12-20T20:59:54.330Z,26.40
2018-12-20T21:02:24.391Z,30.77
2018-12-20T21:04:55.105Z,26.40
2018-12-20T21:07:25.122Z,28.53
2018-12-20T21:09:55.156Z,28.57
2018-12-20T21:12:25.161Z,29.47
2018-12-20T21:14:55.173Z,30.60
2018-12-20T21:17:25.251Z,30.53
2018-12-20T21:19:55.222Z,29.80
2018-12-20T21:22:25.317Z,27.83
2018-12-20T21:24:55.365Z,28.93
2018-12-20T21:27:25.422Z,31.07
2018-12-20T21:29:55.288Z,30.97
2018-12-20T21:32:25.238Z,27.27
2018-12-20T21:34:55.318Z,30.53
2018-12-20T21:37:25.343Z,28.73
2018-12-20T21:39:55.605Z,28.03
2018-12-20T21:42:25.563Z,31.97
2018-12-20T21:44:55.897Z,30.83
2018-12-20T21:47:25.877Z,30.27
2018-12-20T21:49:56.943Z,30.07
2018-12-20T21:52:26.929Z,30.17
2018-12-20T21:54:57.081Z,30.23
2018-12-20T21:57:27.037Z,31.03
2018-12-20T22:00:01.205Z,30.77
2018-12-20T22:02:29.006Z,30.67
2018-12-20T22:04:59.013Z,30.50
2018-12-20T22:07:30.812Z,30.80
2018-12-20T22:10:00.679Z,31.97
2018-12-20T22:12:30.852Z,32.43
2018-12-20T22:15:00.925Z,31.00
2018-12-20T22:17:30.947Z,31.43
2018-12-20T22:20:01.015Z,33.67
2018-12-20T22:22:30.845Z,33.03
2018-12-20T22:25:00.826Z,34.37
2018-12-20T22:27:30.779Z,34.20
2018-12-20T22:30:00.935Z,32.17
2018-12-20T22:32:30.960Z,35.20
2018-12-20T22:35:00.839Z,33.87
2018-12-20T22:37:30.991Z,32.83
2018-12-20T22:40:00.910Z,33.73
2018-12-20T22:42:31.254Z,37.30
2018-12-20T22:45:01.373Z,33.67
2018-12-20T22:47:32.561Z,35.27
2018-12-20T22:50:02.587Z,34.87
2018-12-20T22:52:32.807Z,36.67
2018-12-20T22:55:02.673Z,38.00
2018-12-20T22:57:32.643Z,38.67
2018-12-20T23:00:02.678Z,35.50
2018-12-20T23:02:32.757Z,40.17
2018-12-20T23:05:02.939Z,39.27
2018-12-20T23:07:33.050Z,39.37
2018-12-20T23:10:03.262Z,39.27
2018-12-20T23:12:33.257Z,36.93
2018-12-20T23:15:03.233Z,36.13
2018-12-20T23:17:33.553Z,35.83
2018-12-20T23:20:03.667Z,41.20
2018-12-20T23:22:33.681Z,39.00
2018-12-20T23:25:03.726Z,43.63
2018-12-20T23:27:33.739Z,40.67
2018-12-20T23:30:04.832Z,44.27
2018-12-20T23:32:34.820Z,40.33
2018-12-20T23:35:05.422Z,43.53
2018-12-20T23:37:35.619Z,40.63
2018-12-20T23:40:06.084Z,44.07
2018-12-20T23:42:36.213Z,43.93
2018-12-20T23:45:06.469Z,43.87
2018-12-20T23:47:36.474Z,41.27
2018-12-20T23:50:06.488Z,44.07
2018-12-20T23:52:36.636Z,44.00
2018-12-20T23:55:06.943Z,42.10
2018-12-20T23:57:36.948Z,43.20
